Vileyka, Belarus

1:31 AM MSK on April 27, 2015 (GMT +0300)
Minsk-2 | | Change Station
CLOSE
Current Station
Airport
Location: Minsk In-Min,
Elevation: 669 ft
Nearby Weather Stations

Elev 669 ft 53.88 °N, 28.03 °E | Updated 31 minutes ago

Mostly Cloudy
Mostly Cloudy
54 °F
Feels Like 54 °F
N
0
Wind Variable Wind from North

Today
High -- | Low -- °F
--% Chance of Precip.
Yesterday
High -- | Low -- °F
Precip. -- in
5:43 AM 8:37 PM
First Quarter, 59% visible
Pressure 29.77 in
Visibility 6.2 miles
Clouds Scattered Clouds 5000 ft
Mostly Cloudy 11000 ft
Dew Point 48 °F
Humidity 82%
Rainfall 0.00 in
Snow Depth Not available.
UV 0 out of 12
Pollen Not available.
Air Quality Not available.
Flu Activity Not available.
METAR UMMS 262200Z 00000MPS 9999 SCT050CB BKN110 12/09 Q1008 R31/CLRD// NOSIG

More Conditions Fewer Conditions

Pressure 29.77 in
Visibility 6.2 miles
Clouds Scattered Clouds 5000 ft
Mostly Cloudy 11000 ft
Dew Point 48 °F
Humidity 82%
Rainfall 0.00 in
Snow Depth Not available.
UV 0 out of 12
Pollen Not available.
Air Quality Not available.
Flu Activity Not available.
METAR UMMS 262200Z 00000MPS 9999 SCT050CB BKN110 12/09 Q1008 R31/CLRD// NOSIG

More Conditions Fewer Conditions

10-Day Weather Forecast

Almanac

Astronomy

Apr. 27, 2015 Rise Set
Actual Time
Civil Twilight
Nautical Twilight
Astronomical Twilight
Moon
Length of Visible Light
Length of Day
Tomorrow will be .
, % of the Moon is Illuminated

Today's Extremes

Country Highs Country Lows

Community

WunderPhotos

Upload Photos

1,817,149 photos uploaded!

WunderBlogs® & News

Nearby

Air Quality

  Air Quality AQ Index Pollutant
Not available.

Snow Depth

Station Depth Elevation

Earthquake Activity

City Distance Mag. Time & Date
Minimum magnitude displayed is 2.5.

Coastal Water Temperatures

Place Temperature

Stations

Nearby Weather Stations

Station Location Temp. Windchill Dew Point Humidity Wind Precip. Elev Updated Type